Historyczne dane pomiarowe

Dodano dane terminowe – wersja testowa.

Dane z okresu 1951-2019

Wersja bazy: 1.34 [2019-03-16, lista zmian], aktualizacja planowana na 2019-04-15

Dane meteo z obszaru Polski uzyskane na podstawie danych udostępnionych przez Instytut Meteorologii i Gospodarki Wodnej – Państwowy Instytut Badawczy.

 

Wybierz Datę:    

       

TemperaturaWilgotnośćWiatrCiśnienieOpadyŚniegCzas trwania zjawisk
 Stacja t tx tn tng RH VA  wxwx mslp ppp RRR   cm mm wxwxwxwxwxwxwx
2019-01-31 -0.3 3.6 -1.9 -3.0 81.9 4.9- 1.0--1004.9 968.5 0.0 0.0 0.0x- 6.5-------
2019-01-30 0.7 4.5 -0.7 -2.1 81.9 5.3- 1.1--1004.4 968.1 0.0 0.0 0.0x- 3.8-------
2019-01-29 1.2 4.4 -3.2 -5.8 83.4 5.5- 1.0--1005.0 968.7 0.0 0.0 0.0x- 3.7-------
2019-01-28 2.2 7.0 -1.3 -4.8 76.9 5.4- 1.6-- 997.1 961.2 0.8 0.3 0.5x- 5.2-------
2019-01-27 0.0 3.3 -3.0 -4.0 73.5 4.5- 2.4--1001.8 965.5 0.0 0.0 0.0x- 4.6-------
2019-01-26 -4.2 -1.7 -6.6-10.0 82.1 3.7- 0.5--1009.2 972.1 0.0 0.0 0.0x- 0.0-------
2019-01-25 -5.7 -3.6 -7.1 -7.2 79.9 3.2- 1.5--1013.2 975.8 0.2 0.2 0.0x- 0.0-------
2019-01-24 -6.2 -5.3 -6.8 -6.9 84.5 3.3- 2.1--1010.9 973.4 1.1 0.3 0.8x- 0.0-------
2019-01-23 -6.7 -4.7 -9.0-10.7 90.0 3.3- 1.6--1008.3 970.9 0.0 0.0 0.0x- 0.0-------
2019-01-22 -8.7 -2.4-13.0-14.0 79.6 2.6- 1.3--1017.6 979.6 0.0 0.0 0.0x- 7.7-------
2019-01-21 -7.8 -2.6-10.1-12.2 86.9 3.0- 1.1--1024.5 986.3 0.0 0.0 0.0x- 2.4-------
2019-01-20 -4.8 -0.9 -7.2 -8.5 81.8 3.5- 0.8--1019.8 982.2 0.0 0.0 0.0x- 0.7-------
2019-01-19 -3.9 0.0 -8.0 -9.7 74.6 3.4- 1.1--1023.3 985.7 0.0 0.0 0.0x- 7.3-------
2019-01-18 2.3 5.2 -0.4 -0.9 72.9 5.3- 3.5--1013.4 977.0 0.0 0.0 0.0x- 0.6-------
2019-01-17 2.0 5.8 -1.3 -2.8 80.1 5.6- 1.0--1007.5 971.3 0.0 0.0 0.0x- 1.5-------
2019-01-16 3.5--- 84.3------- 2.0 2.0 0.0x- 0.0-------
2019-01-15 -1.0 1.7 -2.5 -3.1 80.1 4.6- 4.6--1008.0 971.4 4.9 1.2 3.7x- 0.0-------
2019-01-14 1.3 3.8 -2.7 -2.6 75.9 5.2- 5.3-- 994.4 958.5 0.1 0.1 0.0x- 1.2-------
2019-01-13 1.1 4.1 -0.9 -1.6 76.4 5.1- 1.6--1001.2 965.1 1.2 0.0 1.2x- 0.1-------
2019-01-12 0.5 2.5-10.8-14.6 78.5 5.0- 2.6--1011.7 975.1 0.0 0.0 0.0x- 1.7-------
2019-01-11 -6.7 -2.8 -9.7-16.7 84.1 3.1- 1.1--1019.9 982.1 0.2 0.0 0.2x- 5.3-------
2019-01-10 -3.9 -2.0 -4.8 -6.7 91.0 4.2- 0.9--1015.7 978.4 0.4 0.3 0.1x- 0.0-------
2019-01-09 -4.4 -2.8 -5.6-10.5 84.6 3.7- 1.3--1005.1 968.1 0.8 0.5 0.3x- 0.0-------
2019-01-08 -5.8 -2.5-12.1-19.8 83.0 3.3- 1.0--1012.6 975.1 1.2 0.5 0.7x- 1.0-------
2019-01-07 -7.1 -3.8 -9.8-18.2 83.0 3.0- 0.8--1030.2 992.0 0.0 0.0 0.0x- 2.5-------
2019-01-06 -3.7 0.9 -6.6 -2.1 84.0 4.0- 2.4--1021.5 984.0 1.0 0.9 0.1x- 0.0-------
2019-01-05 -2.0 1.1 -4.4 -4.3 87.0 4.6- 2.1--1015.0 978.0 10.4 9.6 0.8x- 0.0-------
2019-01-04 -4.1 -2.4 -5.1 -6.4 77.5 3.5- 2.6--1027.0 989.2 0.5 0.0 0.5x- 1.4-------
2019-01-03 -3.1 -0.5 -4.6 -6.1 78.3 3.8- 3.9--1022.7 985.3 0.6 0.6 0.0x- 1.7-------
2019-01-02 0.5 4.5 -0.7 -1.6 83.6 5.3- 5.4--1012.4 975.8 2.0 1.8 0.2x- 0.0-------
2019-01-01 1.8 5.1 -1.9 -3.3 80.3 5.6- 3.3--1020.4 983.7 1.8 0.0 1.8x- 0.1-------
2018-12-31 2.0 3.3 1.5 0.8 83.4 5.9- 3.1--1026.7 989.8 0.7 0.7 0.0x- 0.0-------
2018-12-30 3.6 6.5 2.3 0.8 84.4 6.6- 1.4--1020.7 984.2 1.8 0.4 1.4x- 1.1-------
2018-12-29 3.5 4.8 2.9 2.1 83.9 6.6- 2.0--1025.6 988.9 0.4 0.3 0.1x- 0.1-------
2018-12-28 5.2 6.4 3.6 3.1 82.3 7.3- 3.5--1021.3 985.0 0.9 0.2 0.7x- 0.0-------
2018-12-27 4.3 6.6 2.6 1.8 86.8 7.2- 2.0--1023.6 987.1 1.2 1.2 0.0x- 0.0-------
2018-12-26 3.3 4.0 0.7 0.0 78.6 6.1- 4.9--1024.3 987.7 0.0 0.0 0.0x- 0.0-------
2018-12-25 0.1 1.8 -2.0 -2.1 82.5 5.1- 4.1--1025.1 988.0 0.8 0.5 0.3x- 0.0-------
2018-12-24 1.4 4.7 -0.6 -0.8 84.3 5.8- 2.8--1015.2 978.6 2.8 2.8 0.0x- 0.0-------
2018-12-23 3.4 6.7 1.4 -0.1 85.5 6.7- 2.0--1017.4 981.0 2.1 0.4 1.7x- 0.0-------
2018-12-22 6.5 8.6 1.2 0.5 75.1 7.3- 4.1--1008.9 973.1 1.5 1.4 0.1x- 0.0-------
2018-12-21 0.6 2.1 -2.3 -5.1 77.1 4.9- 1.9--1018.9 982.0 0.0 0.0 0.0x- 2.8-------
2018-12-20 -2.2 2.1 -7.5-11.1 82.8 4.3- 1.8--1022.1 984.7 0.0 0.0 0.0x- 0.0-------
2018-12-19 -4.7 -0.9 -6.3-10.6 91.9 4.0- 1.1--1028.2 990.3 0.0 0.0 0.0x- 3.9-------
2018-12-18 -1.4 1.4 -3.0 -5.3 93.3 5.2- 0.6--1030.0 992.6 0.0 0.0 0.0x- 0.0-------
2018-12-17 -6.3 -2.8-11.6-16.3 91.8 3.6- 1.0--1024.7 986.7 0.0 0.0 0.0x- 0.0-------
2018-12-16 -4.7 -1.1 -6.6-12.3 92.3 4.0- 0.9--1020.7 983.1 0.1 0.1 0.0x- 2.4-------
2018-12-15 -1.8 -0.8 -2.6 -2.8 81.8 4.4- 2.5--1024.5 987.1 1.1 0.5 0.6x- 0.0-------
2018-12-14 -1.2 -0.4 -1.7 -1.8 87.9 4.9- 1.5--1025.3 988.0 0.0 0.0 0.0x- 0.0-------
2018-12-13 -0.5 0.2 -1.0 -3.0 92.3 5.5- 1.0--1023.1 986.0 0.0 0.0 0.0x- 0.0-------
2018-12-12 0.1 0.9 -0.4 -1.6 97.1 6.0- 1.0--1019.2 982.3 0.2 0.2 0.0x- 0.0-------
2018-12-11 0.4 3.0 -0.9 -3.2 91.5 5.8- 1.4--1012.7 976.1 2.9 0.2 2.7x- 0.4-------
2018-12-10 2.4 5.2 1.7 -0.9 86.4 6.3- 2.5--1007.9 971.7 2.8 0.7 2.1x- 0.3-------
2018-12-09 3.9 8.6 -0.8 -3.0 77.4 6.2- 2.6--1001.9 966.1 2.6 0.5 2.1x- 1.2-------
2018-12-08 3.2 7.0 1.7 -0.8 84.0 6.5- 2.0--1008.5 972.4 0.9 0.9 0.0x- 0.0-------
2018-12-07 2.9 6.0 0.8 -0.1 77.8 5.9- 1.4--1015.5 979.1 3.8 0.0 3.8x- 0.0-------
2018-12-06 -1.0 2.7 -5.8 -8.8 80.4 4.5- 1.0--1026.5 989.2 0.0 0.0 0.0x- 5.4-------
2018-12-05 1.3 6.0 -1.9 -4.7 74.8 5.0- 3.1--1028.4 991.3 0.0 0.0 0.0x- 4.3-------
2018-12-04 4.7--- 86.0------- 0.9 0.9 0.0x- 0.0-------
2018-12-03 3.2 7.4 0.7 0.0 78.8 6.1- 1.9--1009.8 973.7 0.0 0.0 0.0x- 2.8-------
283.6 ms

 

Źródłem pochodzenia danych jest Instytut Meteorologii i Gospodarki Wodnej – Państwowy Instytut Badawczy. Dane Instytutu Meteorologii i Gospodarki Wodnej – Państwowego Instytutu Badawczego zostały przetworzone.

Dane źródłowe można odnaleźć na stronie https://dane.imgw.pl